Time;durP1;ratioP1;P1;durP2;ratioP2;P2;SDS_P1;SDS_P2;PMS_P1;PMS_P2;Temp;Humidity;BMP_temperature;BMP_pressure;BME280_temperature;BME280_humidity;BME280_pressure;Samples;Min_cycle;Max_cycle;Signal;HPM_P1;HPM_P2
2023/12/27 00:01:28;;;;;;;41.05;24.52;;;;;;;2.81;nan;101040.81;5041408;28;20020;-67
2023/12/27 00:03:54;;;;;;;40.83;23.73;;;;;;;2.84;nan;101056.09;5053914;28;20021;-68
2023/12/27 00:06:19;;;;;;;39.47;23.63;;;;;;;2.82;nan;101068.44;5034786;28;20032;-69
2023/12/27 00:08:45;;;;;;;41.00;23.92;;;;;;;2.70;nan;101049.69;5037532;28;20060;-69
2023/12/27 00:11:11;;;;;;;41.03;23.95;;;;;;;2.61;nan;101041.06;5035963;28;20033;-67
2023/12/27 00:13:36;;;;;;;42.20;23.38;;;;;;;2.68;nan;101052.47;5036948;28;20033;-67
2023/12/27 00:16:02;;;;;;;38.53;23.40;;;;;;;2.68;nan;101052.47;5039162;28;20036;-68
2023/12/27 00:18:27;;;;;;;50.88;27.10;;;;;;;2.69;nan;101056.69;5022813;28;20082;-67
2023/12/27 00:20:53;;;;;;;43.92;23.63;;;;;;;2.65;nan;101057.97;5018336;28;20028;-69
2023/12/27 00:23:18;;;;;;;45.50;26.33;;;;;;;2.62;nan;101065.28;5036918;28;20033;-70
2023/12/27 00:25:44;;;;;;;46.13;24.63;;;;;;;2.52;nan;101047.22;5036954;28;20064;-69
2023/12/27 00:28:10;;;;;;;42.97;23.42;;;;;;;2.43;nan;101043.75;5036647;28;20024;-68
2023/12/27 00:30:35;;;;;;;40.42;24.40;;;;;;;2.52;nan;101070.59;5028800;28;20025;-69
2023/12/27 00:33:01;;;;;;;40.08;22.80;;;;;;;2.38;nan;101053.78;5038721;28;20033;-67
2023/12/27 00:35:27;;;;;;;40.00;23.40;;;;;;;2.42;nan;101067.28;5040872;28;20045;-67
2023/12/27 00:37:52;;;;;;;43.30;24.00;;;;;;;2.44;nan;101079.19;5030100;28;20052;-67
2023/12/27 00:40:17;;;;;;;38.95;22.95;;;;;;;2.45;nan;101080.00;5038403;28;20115;-67
2023/12/27 00:42:43;;;;;;;41.80;23.85;;;;;;;2.33;nan;101067.25;5039755;28;20477;-67
2023/12/27 00:45:09;;;;;;;37.28;22.05;;;;;;;2.33;nan;101075.06;5037238;28;20423;-66
2023/12/27 00:47:34;;;;;;;39.35;22.77;;;;;;;2.38;nan;101091.97;5021313;28;20045;-66
2023/12/27 00:50:00;;;;;;;38.25;23.05;;;;;;;2.31;nan;101076.97;5035508;28;20057;-68
2023/12/27 00:52:25;;;;;;;38.80;23.17;;;;;;;2.31;nan;101094.38;5037769;28;20460;-69
2023/12/27 00:54:52;;;;;;;34.92;21.38;;;;;;;2.30;nan;101101.34;5037127;28;20083;-66
2023/12/27 00:57:18;;;;;;;39.70;22.65;;;;;;;1.93;nan;101054.81;5037381;28;20079;-68
2023/12/27 00:59:43;;;;;;;38.83;22.02;;;;;;;2.13;nan;101112.59;5037432;28;20033;-67
2023/12/27 01:02:09;;;;;;;35.55;21.90;;;;;;;2.21;nan;101125.66;5037511;28;20482;-68
2023/12/27 01:04:34;;;;;;;37.95;21.45;;;;;;;1.99;nan;101095.78;5037253;28;20419;-68
2023/12/27 01:07:00;;;;;;;37.90;21.75;;;;;;;2.13;nan;101118.63;5038253;28;20056;-68
2023/12/27 01:09:26;;;;;;;39.50;22.90;;;;;;;2.01;nan;101106.00;5025229;28;20091;-68
2023/12/27 01:11:51;;;;;;;37.47;22.38;;;;;;;2.05;nan;101112.53;5025348;28;20029;-69
2023/12/27 01:14:19;;;;;;;40.10;22.73;;;;;;;2.01;nan;101114.63;5038625;28;20024;-68
2023/12/27 01:16:44;;;;;;;41.50;23.42;;;;;;;1.98;nan;101103.72;5041257;28;20075;-68
2023/12/27 01:19:10;;;;;;;48.63;26.23;;;;;;;2.09;nan;101119.06;5043617;28;20029;-68
2023/12/27 01:21:36;;;;;;;44.45;25.00;;;;;;;1.98;nan;101114.13;5044402;28;20036;-67
2023/12/27 01:24:02;;;;;;;46.92;26.33;;;;;;;2.03;nan;101122.25;5033224;28;20025;-67
2023/12/27 01:26:27;;;;;;;48.17;25.40;;;;;;;2.03;nan;101130.06;5046365;28;20036;-68
2023/12/27 01:28:52;;;;;;;47.97;25.42;;;;;;;2.00;nan;101119.97;5043936;28;20070;-70
2023/12/27 01:31:18;;;;;;;45.17;24.63;;;;;;;2.08;nan;101128.66;5037734;28;20438;-69
2023/12/27 01:33:43;;;;;;;48.67;24.52;;;;;;;2.06;nan;101119.34;5033614;28;20116;-68
2023/12/27 01:36:09;;;;;;;46.90;24.55;;;;;;;1.98;nan;101114.13;5038508;28;20498;-69
2023/12/27 01:38:35;;;;;;;45.80;25.02;;;;;;;2.03;nan;101123.06;5036994;28;20040;-67
2023/12/27 01:41:00;;;;;;;48.72;24.83;;;;;;;2.08;nan;101133.00;5035887;28;20029;-69
2023/12/27 01:43:26;;;;;;;45.88;24.10;;;;;;;2.03;nan;101123.06;5037677;28;20417;-69
2023/12/27 01:45:51;;;;;;;46.95;24.25;;;;;;;1.87;nan;101090.03;5026957;28;20044;-70
2023/12/27 01:48:21;;;;;;;43.80;23.45;;;;;;;2.04;nan;101113.53;5041214;28;20025;-68
2023/12/27 01:50:50;;;;;;;;;;;;;;;2.06;nan;101122.78;5021872;28;20037;-69
2023/12/27 01:53:19;;;;;;;46.55;22.52;;;;;;;2.00;nan;101110.41;5041783;28;19921;-69
2023/12/27 01:55:47;;;;;;;45.78;23.90;;;;;;;1.99;nan;101102.75;5037853;28;20033;-68
2023/12/27 01:58:14;;;;;;;43.50;23.33;;;;;;;2.04;nan;101121.31;5022485;28;20444;-69
2023/12/27 02:00:45;;;;;;;49.08;22.98;;;;;;;2.03;nan;101122.25;5040377;28;20089;-68
2023/12/27 02:03:14;;;;;;;47.08;22.85;;;;;;;1.95;nan;101115.22;5037685;28;20037;-69
2023/12/27 02:05:44;;;;;;;47.17;23.05;;;;;;;1.96;nan;101127.25;5017952;28;20507;-68
2023/12/27 02:08:11;;;;;;;39.42;22.00;;;;;;;1.79;nan;101105.53;5018795;28;20653;-68
2023/12/27 02:10:36;;;;;;;40.00;22.10;;;;;;;1.86;nan;101132.53;5034503;28;20048;-68
2023/12/27 02:13:08;;;;;;;42.75;21.35;;;;;;;1.75;nan;101135.38;5053628;28;20025;-69
2023/12/27 02:15:35;;;;;;;38.60;21.95;;;;;;;1.75;nan;101155.28;5037945;28;20028;-67
2023/12/27 02:18:02;;;;;;;45.88;22.65;;;;;;;1.68;nan;101162.88;5037902;28;20070;-66
2023/12/27 02:20:28;;;;;;;44.47;24.60;;;;;;;1.65;nan;101158.81;5036582;28;20025;-67
2023/12/27 02:22:56;;;;;;;51.88;24.42;;;;;;;1.66;nan;101162.22;5024788;28;20021;-67
2023/12/27 02:25:22;;;;;;;47.88;25.13;;;;;;;1.60;nan;101165.38;5038545;28;20032;-68
2023/12/27 02:27:47;;;;;;;54.10;24.25;;;;;;;1.53;nan;101159.97;5019604;28;20021;-67
2023/12/27 02:30:21;;;;;;;42.42;24.48;;;;;;;1.51;nan;101158.47;5018376;28;20028;-68
2023/12/27 02:32:50;;;;;;;46.75;25.52;;;;;;;1.58;nan;101175.94;5023625;28;20112;-67
2023/12/27 02:35:17;;;;;;;47.38;24.73;;;;;;;1.59;nan;101181.94;5021892;28;20495;-67
2023/12/27 02:37:42;;;;;;;42.03;22.70;;;;;;;1.56;nan;101185.63;5035234;28;20141;-69
2023/12/27 02:40:09;;;;;;;43.40;23.35;;;;;;;1.52;nan;101180.88;5052827;28;20924;-70
2023/12/27 02:42:38;;;;;;;44.38;23.73;;;;;;;1.47;nan;101181.31;5035277;28;20067;-68
2023/12/27 02:45:06;;;;;;;46.15;24.00;;;;;;;1.52;nan;101179.09;5033676;28;20017;-71
2023/12/27 02:47:31;;;;;;;41.50;21.98;;;;;;;1.51;nan;101184.44;5035739;28;20105;-72
2023/12/27 02:49:56;;;;;;;41.10;22.15;;;;;;;1.37;nan;101165.81;5034415;28;20542;-72
2023/12/27 02:52:22;;;;;;;42.67;23.50;;;;;;;1.35;nan;101174.69;5034142;28;20116;-73
2023/12/27 02:54:47;;;;;;;44.78;23.48;;;;;;;1.22;nan;101164.66;5033727;28;20037;-72
2023/12/27 02:57:13;;;;;;;47.90;23.75;;;;;;;1.28;nan;101177.06;5033382;28;20025;-72
2023/12/27 02:59:38;;;;;;;35.22;20.00;;;;;;;1.35;nan;101187.69;5035048;28;20053;-73
2023/12/27 03:02:04;;;;;;;40.70;21.23;;;;;;;1.36;nan;101197.91;5036755;28;20132;-71
2023/12/27 03:04:29;;;;;;;34.53;20.20;;;;;;;1.27;nan;101191.00;5038248;28;20028;-71
2023/12/27 03:06:54;;;;;;;32.40;19.02;;;;;;;1.33;nan;101210.34;5040262;28;20035;-71
2023/12/27 03:09:20;;;;;;;31.98;18.33;;;;;;;1.27;nan;101199.59;5039864;28;20033;-71
2023/12/27 03:11:45;;;;;;;32.85;19.20;;;;;;;1.23;nan;101200.03;5030137;28;20038;-72
2023/12/27 03:14:11;;;;;;;34.70;19.48;;;;;;;1.21;nan;101194.97;5024787;28;20078;-72
2023/12/27 03:16:36;;;;;;;39.40;20.98;;;;;;;1.21;nan;101191.56;5038755;28;20493;-71
2023/12/27 03:19:02;;;;;;;38.50;21.45;;;;;;;1.20;nan;101198.53;5041576;28;20028;-71
2023/12/27 03:21:27;;;;;;;38.35;21.92;;;;;;;1.17;nan;101200.59;5036092;28;20017;-69
2023/12/27 03:23:53;;;;;;;37.63;21.63;;;;;;;1.13;nan;101194.06;5027556;28;20109;-69
2023/12/27 03:26:18;;;;;;;49.05;24.02;;;;;;;1.24;nan;101215.44;5037357;28;20031;-68
2023/12/27 03:28:44;;;;;;;52.33;24.75;;;;;;;1.00;nan;101174.44;5029353;28;20044;-69
2023/12/27 03:31:09;;;;;;;49.20;24.35;;;;;;;1.23;nan;101203.44;5030872;28;20567;-68
2023/12/27 03:33:35;;;;;;;49.60;23.42;;;;;;;1.21;nan;101205.34;5041101;28;20025;-69
2023/12/27 03:36:01;;;;;;;45.25;23.92;;;;;;;1.25;nan;101214.50;5055655;28;20029;-67
2023/12/27 03:38:26;;;;;;;47.35;24.10;;;;;;;1.25;nan;101224.88;5040496;28;20040;-67
2023/12/27 03:40:52;;;;;;;47.13;23.30;;;;;;;1.22;nan;101222.56;5040854;28;20585;-68
2023/12/27 03:43:17;;;;;;;48.10;23.67;;;;;;;1.09;nan;101214.28;5040763;28;20495;-67
2023/12/27 03:45:45;;;;;;;54.08;25.83;;;;;;;1.15;nan;101228.44;5037816;28;20033;-69
2023/12/27 03:48:11;;;;;;;54.20;25.30;;;;;;;1.14;nan;101232.00;5038049;28;20078;-67
2023/12/27 03:50:36;;;;;;;44.20;24.80;;;;;;;1.12;nan;101233.91;5037474;28;20475;-67
2023/12/27 03:53:01;;;;;;;50.60;25.75;;;;;;;1.10;nan;101230.66;5040087;28;20048;-69
2023/12/27 03:55:27;;;;;;;49.95;26.40;;;;;;;1.21;nan;101248.63;5025815;28;20036;-67
2023/12/27 03:57:53;;;;;;;49.25;25.58;;;;;;;1.22;nan;101252.84;5041306;28;20494;-68
2023/12/27 04:00:19;;;;;;;51.88;25.65;;;;;;;1.21;nan;101236.47;5027992;28;20022;-69
2023/12/27 04:02:45;;;;;;;48.25;25.23;;;;;;;1.14;nan;101225.03;5039254;28;20044;-67
2023/12/27 04:05:12;;;;;;;47.00;24.60;;;;;;;0.95;nan;101197.41;5046505;28;20013;-68
2023/12/27 04:07:37;;;;;;;47.30;24.95;;;;;;;1.23;nan;101244.13;5039342;28;20461;-70
2023/12/27 04:10:03;;;;;;;52.13;25.63;;;;;;;1.21;nan;101243.44;5044680;28;20021;-68
2023/12/27 04:12:29;;;;;;;51.63;25.23;;;;;;;1.20;nan;101236.63;5023698;28;20029;-68
2023/12/27 04:14:55;;;;;;;51.15;26.15;;;;;;;1.20;nan;101244.44;5044783;28;20221;-69
2023/12/27 04:17:20;;;;;;;49.22;25.52;;;;;;;1.19;nan;101237.59;5040252;28;20024;-67
2023/12/27 04:19:45;;;;;;;53.33;25.38;;;;;;;1.19;nan;101241.00;5028281;28;20505;-66
2023/12/27 04:22:11;;;;;;;57.72;25.50;;;;;;;1.18;nan;101233.38;5037748;28;20075;-67
2023/12/27 04:24:36;;;;;;;54.83;26.45;;;;;;;1.16;nan;101238.69;5040215;28;20096;-67
2023/12/27 04:27:03;;;;;;;54.75;26.70;;;;;;;0.93;nan;101204.50;5037831;28;20016;-68
2023/12/27 04:29:28;;;;;;;54.38;26.52;;;;;;;1.11;nan;101243.50;5031935;28;20057;-67
2023/12/27 04:31:53;;;;;;;55.58;28.13;;;;;;;1.20;nan;101247.00;5034661;28;20431;-68
2023/12/27 04:34:19;;;;;;;57.40;27.75;;;;;;;1.22;nan;101248.50;5037077;28;20033;-68
2023/12/27 04:36:44;;;;;;;54.47;27.85;;;;;;;1.24;nan;101248.34;5040676;28;20112;-69
2023/12/27 04:39:10;;;;;;;55.85;28.70;;;;;;;1.26;nan;101254.22;5035129;28;20094;-67
2023/12/27 04:41:35;;;;;;;58.10;28.00;;;;;;;1.00;nan;101215.13;5040221;28;20020;-68
2023/12/27 04:44:01;;;;;;;53.47;28.20;;;;;;;1.31;nan;101262.38;5036349;28;20040;-68
2023/12/27 04:46:26;;;;;;;55.63;27.95;;;;;;;1.30;nan;101265.94;5039485;28;20028;-67
2023/12/27 04:48:52;;;;;;;56.88;27.58;;;;;;;1.31;nan;101270.16;5023100;28;20021;-68
2023/12/27 04:51:17;;;;;;;59.92;27.50;;;;;;;1.27;nan;101261.88;5042823;28;20029;-68
2023/12/27 04:53:44;;;;;;;64.43;28.42;;;;;;;1.29;nan;101264.28;5035799;28;20046;-68
2023/12/27 04:56:09;;;;;;;56.35;28.35;;;;;;;1.32;nan;101264.03;5039798;28;20029;-69
2023/12/27 04:58:36;;;;;;;60.30;28.58;;;;;;;1.33;nan;101268.25;5035691;28;20043;-68
2023/12/27 05:01:07;;;;;;;55.05;28.05;;;;;;;1.32;nan;101274.41;5035412;28;20029;-68
2023/12/27 05:03:39;;;;;;;54.33;28.27;;;;;;;1.31;nan;101264.97;5039189;28;20036;-68
2023/12/27 05:06:07;;;;;;;59.08;28.33;;;;;;;1.31;nan;101264.97;5035908;28;20056;-68
2023/12/27 05:08:32;;;;;;;59.47;29.10;;;;;;;1.35;nan;101265.53;5040301;28;20127;-68
2023/12/27 05:10:58;;;;;;;56.53;28.98;;;;;;;1.33;nan;101265.66;5040492;28;20029;-67
2023/12/27 05:13:23;;;;;;;55.78;28.52;;;;;;;1.30;nan;101262.53;5037250;28;20025;-68
2023/12/27 05:15:49;;;;;;;61.00;28.08;;;;;;;1.36;nan;101273.16;5037230;28;20025;-67
2023/12/27 05:18:14;;;;;;;49.58;25.70;;;;;;;1.38;nan;101280.81;5037751;28;20652;-68
2023/12/27 05:20:40;;;;;;;52.97;27.02;;;;;;;1.29;nan;101266.88;5038911;28;20030;-67
2023/12/27 05:23:05;;;;;;;48.90;25.42;;;;;;;1.37;nan;101274.78;5036410;28;20036;-67
2023/12/27 05:25:31;;;;;;;46.03;24.38;;;;;;;1.38;nan;101280.81;5037994;28;20013;-68
2023/12/27 05:27:56;;;;;;;53.97;26.63;;;;;;;1.39;nan;101292.81;5036245;28;20052;-67
2023/12/27 05:30:21;;;;;;;50.85;25.75;;;;;;;1.21;nan;101272.78;5037453;28;20077;-68
2023/12/27 05:32:47;;;;;;;45.40;23.38;;;;;;;1.38;nan;101304.16;5035372;28;20025;-67
2023/12/27 05:35:12;;;;;;;44.70;23.73;;;;;;;1.27;nan;101292.19;5038766;28;20032;-68
2023/12/27 05:37:38;;;;;;;48.83;24.83;;;;;;;1.35;nan;101302.66;5035615;28;20435;-67
2023/12/27 05:40:04;;;;;;;48.25;23.40;;;;;;;1.38;nan;101307.56;5021487;28;20040;-68
2023/12/27 05:42:29;;;;;;;44.90;23.70;;;;;;;1.32;nan;101302.94;5036172;28;20021;-68
2023/12/27 05:44:55;;;;;;;43.90;22.58;;;;;;;1.40;nan;101321.22;5035411;28;20032;-66
2023/12/27 05:47:20;;;;;;;43.83;23.30;;;;;;;1.40;nan;101323.00;5037039;28;20020;-68
2023/12/27 05:49:45;;;;;;;43.95;22.75;;;;;;;1.39;nan;101327.38;5038133;28;20021;-67
2023/12/27 05:52:11;;;;;;;41.83;22.08;;;;;;;1.32;nan;101313.34;5037062;28;20041;-68
2023/12/27 05:54:37;;;;;;;43.58;22.52;;;;;;;1.36;nan;101326.81;5038063;28;20383;-67
2023/12/27 05:57:03;;;;;;;44.92;22.23;;;;;;;1.34;nan;101328.75;5035087;28;20025;-68
2023/12/27 05:59:29;;;;;;;42.95;21.60;;;;;;;1.33;nan;101329.72;5033664;28;20021;-67
2023/12/27 06:01:54;;;;;;;47.20;21.58;;;;;;;1.26;nan;101319.88;5038469;28;20410;-69
2023/12/27 06:04:21;;;;;;;43.50;22.02;;;;;;;1.36;nan;101334.63;5020989;28;20115;-68
2023/12/27 06:06:49;;;;;;;43.00;20.67;;;;;;;1.21;nan;101316.91;5033213;28;20040;-68
2023/12/27 06:09:17;;;;;;;45.58;22.55;;;;;;;1.24;nan;101328.78;5037777;28;20036;-69
2023/12/27 06:11:42;;;;;;;46.75;23.20;;;;;;;1.29;nan;101334.34;5036684;28;20036;-68
2023/12/27 06:14:08;;;;;;;43.30;22.48;;;;;;;1.32;nan;101347.06;5041024;28;20029;-69
2023/12/27 06:16:33;;;;;;;48.92;22.42;;;;;;;1.30;nan;101350.75;5036869;28;20047;-69
2023/12/27 06:19:02;;;;;;;46.28;22.33;;;;;;;1.21;nan;101335.06;5038159;28;20137;-69
2023/12/27 06:21:28;;;;;;;49.30;23.00;;;;;;;1.23;nan;101343.53;5038222;28;20049;-68
2023/12/27 06:23:54;;;;;;;48.58;22.30;;;;;;;1.19;nan;101343.94;5038967;28;20052;-69
2023/12/27 06:26:20;;;;;;;48.13;22.77;;;;;;;1.28;nan;101369.88;5046454;28;20032;-72
2023/12/27 06:28:46;;;;;;;44.17;22.95;;;;;;;1.25;nan;101367.56;5026169;28;20033;-72
2023/12/27 06:31:11;;;;;;;43.22;21.95;;;;;;;1.23;nan;101358.28;5042282;28;20073;-72
2023/12/27 06:33:37;;;;;;;41.05;22.80;;;;;;;1.11;nan;101342.06;5044828;28;20090;-71
2023/12/27 06:36:05;;;;;;;43.92;23.17;;;;;;;1.21;nan;101352.41;5043372;28;20021;-69
2023/12/27 06:38:30;;;;;;;1999.90;433.83;;;;;;;1.43;nan;101365.03;5044326;28;20028;-74
2023/12/27 06:40:55;;;;;;;67.63;35.75;;;;;;;1.79;nan;101362.59;5028133;28;20434;-73
2023/12/27 06:43:21;;;;;;;62.80;31.67;;;;;;;1.92;nan;101373.47;5051597;28;20040;-73
2023/12/27 06:45:47;;;;;;;49.22;26.67;;;;;;;1.81;nan;101384.03;5051018;28;20037;-71
2023/12/27 06:48:13;;;;;;;46.95;23.33;;;;;;;1.58;nan;101362.00;5066155;28;20036;-71
2023/12/27 06:50:38;;;;;;;38.10;21.52;;;;;;;1.59;nan;101389.59;5062181;28;20467;-70
2023/12/27 06:53:04;;;;;;;39.85;21.38;;;;;;;1.55;nan;101396.03;5063374;28;20047;-71
2023/12/27 06:55:30;;;;;;;36.42;21.23;;;;;;;1.36;nan;101387.31;5045382;28;20120;-72
2023/12/27 06:57:55;;;;;;;38.75;20.90;;;;;;;1.26;nan;101391.72;5047888;28;20397;-71
2023/12/27 07:00:21;;;;;;;35.10;21.10;;;;;;;1.19;nan;101388.84;5043398;28;20516;-73
2023/12/27 07:02:46;;;;;;;33.88;20.63;;;;;;;1.21;nan;101391.31;5043022;28;20475;-71
2023/12/27 07:05:12;;;;;;;35.50;20.33;;;;;;;1.28;nan;101416.56;5042010;28;20044;-72
2023/12/27 07:07:38;;;;;;;35.80;20.40;;;;;;;1.23;nan;101412.75;5041155;28;20036;-72
2023/12/27 07:10:04;;;;;;;40.45;22.20;;;;;;;1.23;nan;101410.97;5041190;28;20039;-74
2023/12/27 07:12:30;;;;;;;35.38;21.30;;;;;;;1.21;nan;101422.47;5046698;28;20439;-72
2023/12/27 07:14:55;;;;;;;39.10;21.15;;;;;;;0.98;nan;101394.22;5032773;28;20037;-73
2023/12/27 07:17:22;;;;;;;36.47;21.73;;;;;;;1.28;nan;101437.31;5040682;28;20571;-74
2023/12/27 07:19:48;;;;;;;38.50;22.58;;;;;;;1.27;nan;101440.88;5038046;28;20032;-72
2023/12/27 07:22:14;;;;;;;43.15;23.45;;;;;;;1.34;nan;101446.34;5039966;28;20024;-73
2023/12/27 07:24:39;;;;;;;42.83;23.23;;;;;;;1.27;nan;101443.50;5041494;28;20025;-73
2023/12/27 07:27:05;;;;;;;37.40;22.10;;;;;;;1.37;nan;101448.66;5027553;28;20035;-73
2023/12/27 07:29:30;;;;;;;45.35;25.63;;;;;;;1.36;nan;101443.59;5049013;28;20031;-74
2023/12/27 07:31:56;;;;;;;44.10;25.17;;;;;;;1.41;nan;101444.84;5028449;28;20111;-74
2023/12/27 07:34:21;;;;;;;47.15;24.35;;;;;;;1.46;nan;101455.63;5040772;28;20483;-72
2023/12/27 07:36:48;;;;;;;47.63;24.52;;;;;;;1.47;nan;101459.03;5045748;28;20044;-70
2023/12/27 07:39:15;;;;;;;55.03;27.27;;;;;;;1.55;nan;101460.94;5044611;28;20095;-72
2023/12/27 07:41:42;;;;;;;60.83;27.92;;;;;;;1.60;nan;101471.72;5042850;28;20039;-70
2023/12/27 07:44:08;;;;;;;60.95;29.35;;;;;;;1.64;nan;101476.47;5039404;28;20017;-71
2023/12/27 07:46:34;;;;;;;63.22;30.25;;;;;;;1.63;nan;101479.22;5037157;28;20116;-74
2023/12/27 07:49:01;;;;;;;63.08;28.98;;;;;;;1.68;nan;101482.22;5053314;28;20028;-71
2023/12/27 07:51:26;;;;;;;64.07;29.88;;;;;;;1.81;nan;101493.13;5038115;28;20108;-67
2023/12/27 07:53:52;;;;;;;58.20;28.05;;;;;;;1.91;nan;101506.88;5037170;28;20129;-68
2023/12/27 07:56:18;;;;;;;62.72;29.23;;;;;;;2.01;nan;101509.50;5029507;28;20034;-68
2023/12/27 07:58:45;;;;;;;61.17;29.60;;;;;;;2.02;nan;101500.72;5038653;28;20553;-72
2023/12/27 08:01:11;;;;;;;55.88;26.77;;;;;;;2.09;nan;101498.38;5040039;28;20060;-76
2023/12/27 08:03:37;;;;;;;54.00;26.90;;;;;;;2.18;nan;101507.94;5036950;28;20021;-72
2023/12/27 08:06:02;;;;;;;59.70;28.58;;;;;;;2.16;nan;101494.25;5039722;28;20024;-73
2023/12/27 08:08:28;;;;;;;56.50;27.98;;;;;;;2.36;nan;101512.38;5047602;28;20040;-72
2023/12/27 08:10:53;;;;;;;65.03;27.58;;;;;;;2.45;nan;101508.91;5041997;28;20100;-71
2023/12/27 08:13:19;;;;;;;69.25;28.42;;;;;;;2.60;nan;101522.25;5039414;28;20035;-72
2023/12/27 08:15:44;;;;;;;63.50;27.52;;;;;;;2.74;nan;101526.97;5038407;28;20033;-69
2023/12/27 08:18:09;;;;;;;56.80;26.65;;;;;;;2.72;nan;101516.69;5038826;28;20106;-71
2023/12/27 08:20:36;;;;;;;73.13;27.00;;;;;;;2.92;nan;101542.59;5045809;28;20119;-70
2023/12/27 08:23:01;;;;;;;58.03;26.08;;;;;;;3.07;nan;101555.94;5030289;28;20024;-71
2023/12/27 08:25:26;;;;;;;49.90;25.17;;;;;;;3.04;nan;101536.22;5043221;28;20036;-71
2023/12/27 08:27:52;;;;;;;46.75;24.20;;;;;;;3.19;nan;101545.16;5038761;28;20025;-71
2023/12/27 08:30:17;;;;;;;40.20;21.00;;;;;;;3.40;nan;101554.47;5037839;28;20378;-73
2023/12/27 08:32:43;;;;;;;37.55;20.77;;;;;;;3.45;nan;101549.63;5030039;28;20029;-73
2023/12/27 08:35:08;;;;;;;40.63;20.50;;;;;;;3.66;nan;101571.91;5043002;28;20036;-72
2023/12/27 08:37:34;;;;;;;39.42;20.75;;;;;;;3.78;nan;101568.94;5039211;28;20025;-70
2023/12/27 08:39:59;;;;;;;38.17;18.92;;;;;;;3.79;nan;101547.13;5042739;28;20381;-73
2023/12/27 08:42:25;;;;;;;42.00;17.55;;;;;;;4.12;nan;101559.53;5045714;28;20104;-70
2023/12/27 08:44:50;;;;;;;40.78;17.90;;;;;;;4.14;nan;101544.56;5046977;28;20023;-71
2023/12/27 08:47:16;;;;;;;31.63;15.80;;;;;;;4.39;nan;101566.41;5039533;28;20099;-70
2023/12/27 08:49:41;;;;;;;29.92;15.55;;;;;;;4.51;nan;101565.16;5035428;28;20028;-71
2023/12/27 08:52:07;;;;;;;29.13;15.57;;;;;;;4.54;nan;101554.38;5040357;28;20438;-71
2023/12/27 08:54:33;;;;;;;29.33;14.05;;;;;;;4.73;nan;101568.16;5039516;28;20024;-70
2023/12/27 08:56:58;;;;;;;28.27;13.25;;;;;;;4.87;nan;101570.19;5033974;28;20087;-70
2023/12/27 08:59:24;;;;;;;31.88;13.88;;;;;;;4.80;nan;101540.47;5038652;28;20074;-70
2023/12/27 09:01:50;;;;;;;24.75;13.27;;;;;;;5.17;nan;101573.19;5036868;28;20025;-69
2023/12/27 09:04:17;;;;;;;29.05;13.48;;;;;;;5.27;nan;101568.66;5052245;28;20450;-70
2023/12/27 09:06:43;;;;;;;24.88;12.63;;;;;;;5.48;nan;101583.84;5020962;28;20526;-70
2023/12/27 09:09:10;;;;;;;21.85;12.32;;;;;;;5.61;nan;101594.63;5040946;28;20107;-70
2023/12/27 09:11:35;;;;;;;25.20;12.23;;;;;;;5.46;nan;101563.13;5040957;28;20094;-69
2023/12/27 09:14:01;;;;;;;25.77;13.55;;;;;;;5.75;nan;101586.16;5037700;28;20021;-68
2023/12/27 09:16:27;;;;;;;22.27;11.63;;;;;;;5.94;nan;101590.25;5038153;28;20032;-70
2023/12/27 09:18:52;;;;;;;23.90;12.75;;;;;;;6.06;nan;101592.53;5037954;28;20045;-70
2023/12/27 09:21:18;;;;;;;24.10;13.93;;;;;;;6.13;nan;101575.19;5036277;28;20025;-69
2023/12/27 09:23:43;;;;;;;23.55;12.90;;;;;;;6.26;nan;101577.28;5037134;28;20021;-69
2023/12/27 09:26:12;;;;;;;21.25;12.23;;;;;;;6.43;nan;101591.16;5036628;28;20013;-70
2023/12/27 09:28:38;;;;;;;18.20;10.52;;;;;;;6.53;nan;101586.53;5030473;28;20029;-69
2023/12/27 09:31:03;;;;;;;20.10;11.13;;;;;;;6.62;nan;101584.72;5041711;28;20059;-68
2023/12/27 09:33:29;;;;;;;21.42;11.25;;;;;;;6.66;nan;101583.38;5057435;28;20020;-68
2023/12/27 09:35:55;;;;;;;20.08;10.10;;;;;;;6.80;nan;101578.25;5059013;28;20036;-70
2023/12/27 09:38:20;;;;;;;24.92;11.00;;;;;;;6.92;nan;101583.09;5056200;28;20013;-68
2023/12/27 09:40:46;;;;;;;21.42;10.50;;;;;;;6.99;nan;101570.94;5049027;28;20582;-70
2023/12/27 09:43:13;;;;;;;18.27;10.43;;;;;;;7.00;nan;101560.31;5025810;28;20089;-71
2023/12/27 09:45:41;;;;;;;19.35;10.13;;;;;;;7.24;nan;101585.53;5038998;28;20501;-71
2023/12/27 09:48:11;;;;;;;16.73;10.35;;;;;;;7.27;nan;101586.19;5039786;28;20474;-71
2023/12/27 09:50:39;;;;;;;18.98;11.55;;;;;;;7.45;nan;101600.63;5039582;28;20028;-71
2023/12/27 09:53:05;;;;;;;16.88;10.27;;;;;;;7.40;nan;101575.94;5034446;28;20048;-70
2023/12/27 09:55:32;;;;;;;19.33;10.48;;;;;;;7.55;nan;101589.91;5026655;28;20032;-72
2023/12/27 09:57:58;;;;;;;20.95;10.55;;;;;;;7.54;nan;101563.88;5039485;28;20422;-68
2023/12/27 10:00:28;;;;;;;18.80;10.25;;;;;;;7.66;nan;101576.41;5037128;28;20021;-72
2023/12/27 10:02:58;;;;;;;18.98;9.88;;;;;;;7.85;nan;101597.84;5038068;28;20027;-70
2023/12/27 10:05:33;;;;;;;18.65;9.85;;;;;;;7.85;nan;101595.22;5039030;28;20017;-70
2023/12/27 10:08:00;;;;;;;19.98;11.30;;;;;;;7.96;nan;101602.69;5034728;28;20136;-69
2023/12/27 10:10:26;;;;;;;20.00;10.38;;;;;;;7.91;nan;101584.03;5037325;28;20017;-70
2023/12/27 10:12:54;;;;;;;17.90;10.52;;;;;;;7.80;nan;101561.66;5033004;28;20391;-70
2023/12/27 10:15:19;;;;;;;16.30;9.07;;;;;;;8.04;nan;101584.22;5031886;28;20032;-70
2023/12/27 10:17:45;;;;;;;16.63;9.45;;;;;;;8.18;nan;101594.94;5039093;28;20025;-69
2023/12/27 10:20:30;;;;;;;20.02;9.27;;;;;;;8.30;nan;101590.88;5035070;28;20025;-69
2023/12/27 10:22:55;;;;;;;17.20;9.23;;;;;;;8.47;nan;101609.91;5020085;28;20121;-69
2023/12/27 10:25:21;;;;;;;15.55;8.73;;;;;;;8.56;nan;101606.19;5040224;28;20091;-71
2023/12/27 10:27:47;;;;;;;17.17;8.93;;;;;;;8.64;nan;101598.25;5035295;28;20025;-69
2023/12/27 10:30:18;;;;;;;12.23;7.43;;;;;;;8.76;nan;101598.56;5037174;28;20024;-69
2023/12/27 10:32:55;;;;;;;13.13;7.70;;;;;;;8.89;nan;101605.81;5033678;28;20518;-67
2023/12/27 10:35:20;;;;;;;19.52;9.88;;;;;;;9.01;nan;101600.91;5034798;28;20025;-70
2023/12/27 10:37:46;;;;;;;10.45;6.60;;;;;;;9.08;nan;101592.09;5040300;28;20375;-69
2023/12/27 10:40:12;;;;;;;10.48;5.43;;;;;;;9.01;nan;101559.69;5037052;28;20071;-69
2023/12/27 10:42:37;;;;;;;9.25;4.78;;;;;;;9.29;nan;101588.69;5038996;28;20040;-68
2023/12/27 10:45:03;;;;;;;12.93;5.85;;;;;;;9.31;nan;101588.47;5036182;28;20452;-69
2023/12/27 10:47:29;;;;;;;10.55;5.28;;;;;;;9.40;nan;101597.88;5038487;28;20537;-70
2023/12/27 10:49:58;;;;;;;7.03;4.40;;;;;;;9.23;nan;101589.41;5032403;28;20122;-68
2023/12/27 10:52:25;;;;;;;8.15;5.15;;;;;;;9.31;nan;101596.38;5055026;28;20037;-70
2023/12/27 10:54:54;;;;;;;13.35;5.22;;;;;;;9.45;nan;101599.94;5048763;28;20076;-69
2023/12/27 10:57:22;;;;;;;8.60;4.82;;;;;;;9.51;nan;101578.97;5036029;28;20176;-68
2023/12/27 10:59:49;;;;;;;10.38;5.20;;;;;;;9.67;nan;101580.50;5037039;28;20037;-68
2023/12/27 11:02:15;;;;;;;11.75;6.55;;;;;;;9.57;nan;101572.13;5038846;28;20022;-69
2023/12/27 11:04:45;;;;;;;9.90;5.63;;;;;;;9.67;nan;101592.84;5036686;28;20021;-69
2023/12/27 11:07:12;;;;;;;10.38;6.05;;;;;;;9.72;nan;101579.94;5035416;28;20371;-69
2023/12/27 11:09:40;;;;;;;13.93;6.90;;;;;;;9.67;nan;101582.34;5035141;28;20095;-69
2023/12/27 11:12:07;;;;;;;13.85;6.40;;;;;;;9.76;nan;101581.19;5017322;28;20024;-69
2023/12/27 11:14:35;;;;;;;11.52;6.25;;;;;;;9.82;nan;101579.63;5034931;28;20021;-69
2023/12/27 11:17:05;;;;;;;11.35;6.30;;;;;;;9.99;nan;101587.06;5034552;28;20094;-69
2023/12/27 11:19:32;;;;;;;12.75;6.68;;;;;;;10.08;nan;101573.72;5041990;28;20155;-70
2023/12/27 11:21:57;;;;;;;15.50;6.75;;;;;;;10.16;nan;101577.03;5040220;28;20021;-70
2023/12/27 11:24:23;;;;;;;12.55;7.20;;;;;;;10.15;nan;101585.13;5038987;28;20360;-70
2023/12/27 11:26:58;;;;;;;13.40;7.45;;;;;;;10.16;nan;101590.19;5022257;28;20037;-70
2023/12/27 11:29:23;;;;;;;9.05;5.80;;;;;;;10.14;nan;101560.63;5038496;28;20032;-68